sensor_id;sensor_type;location;lat;lon;timestamp;P1;durP1;ratioP1;P2;durP2;ratioP2
7613;SDS011;3848;42.016;23.098;2022-12-07T00:01:03;1999.90;;;999.90;;
7613;SDS011;3848;42.016;23.098;2022-12-07T00:03:31;1999.90;;;999.90;;
7613;SDS011;3848;42.016;23.098;2022-12-07T00:05:57;1999.90;;;999.90;;
7613;SDS011;3848;42.016;23.098;2022-12-07T00:08:24;1999.90;;;999.90;;
7613;SDS011;3848;42.016;23.098;2022-12-07T00:10:53;1999.90;;;999.90;;
7613;SDS011;3848;42.016;23.098;2022-12-07T00:13:19;1999.90;;;999.90;;
7613;SDS011;3848;42.016;23.098;2022-12-07T00:15:46;1999.90;;;999.90;;
7613;SDS011;3848;42.016;23.098;2022-12-07T00:18:13;1999.90;;;999.90;;
7613;SDS011;3848;42.016;23.098;2022-12-07T00:20:40;1999.90;;;999.90;;
7613;SDS011;3848;42.016;23.098;2022-12-07T00:23:06;1999.90;;;999.90;;
7613;SDS011;3848;42.016;23.098;2022-12-07T00:25:33;1999.90;;;999.90;;
7613;SDS011;3848;42.016;23.098;2022-12-07T00:28:01;1999.90;;;999.90;;
7613;SDS011;3848;42.016;23.098;2022-12-07T00:30:28;1999.90;;;999.90;;
7613;SDS011;3848;42.016;23.098;2022-12-07T00:32:55;1999.90;;;999.90;;
7613;SDS011;3848;42.016;23.098;2022-12-07T00:35:22;1999.90;;;999.90;;
7613;SDS011;3848;42.016;23.098;2022-12-07T00:37:48;1999.90;;;999.90;;
7613;SDS011;3848;42.016;23.098;2022-12-07T00:40:15;1999.90;;;999.90;;
7613;SDS011;3848;42.016;23.098;2022-12-07T00:42:42;1999.90;;;999.90;;
7613;SDS011;3848;42.016;23.098;2022-12-07T00:45:10;1999.90;;;999.90;;
7613;SDS011;3848;42.016;23.098;2022-12-07T00:47:37;1999.90;;;999.90;;
7613;SDS011;3848;42.016;23.098;2022-12-07T00:50:05;1999.90;;;999.90;;
7613;SDS011;3848;42.016;23.098;2022-12-07T00:52:32;1999.90;;;999.90;;
7613;SDS011;3848;42.016;23.098;2022-12-07T00:54:59;1999.90;;;999.90;;
7613;SDS011;3848;42.016;23.098;2022-12-07T00:57:26;1999.90;;;999.90;;
7613;SDS011;3848;42.016;23.098;2022-12-07T00:59:53;1999.90;;;999.90;;
7613;SDS011;3848;42.016;23.098;2022-12-07T01:02:21;1999.90;;;999.90;;
7613;SDS011;3848;42.016;23.098;2022-12-07T01:04:48;1999.90;;;999.90;;
7613;SDS011;3848;42.016;23.098;2022-12-07T01:07:15;1999.90;;;999.90;;
7613;SDS011;3848;42.016;23.098;2022-12-07T01:09:42;1999.90;;;999.90;;
7613;SDS011;3848;42.016;23.098;2022-12-07T01:12:09;1999.90;;;999.90;;
7613;SDS011;3848;42.016;23.098;2022-12-07T01:14:36;1999.90;;;999.90;;
7613;SDS011;3848;42.016;23.098;2022-12-07T01:17:02;1999.90;;;999.90;;
7613;SDS011;3848;42.016;23.098;2022-12-07T01:19:30;1999.90;;;999.90;;
7613;SDS011;3848;42.016;23.098;2022-12-07T01:21:57;1999.90;;;999.90;;
7613;SDS011;3848;42.016;23.098;2022-12-07T01:24:24;1999.90;;;999.90;;
7613;SDS011;3848;42.016;23.098;2022-12-07T01:26:51;1999.90;;;999.90;;
7613;SDS011;3848;42.016;23.098;2022-12-07T01:29:17;1999.90;;;999.90;;
7613;SDS011;3848;42.016;23.098;2022-12-07T01:31:44;1999.90;;;999.90;;
7613;SDS011;3848;42.016;23.098;2022-12-07T01:34:11;1999.90;;;999.90;;
7613;SDS011;3848;42.016;23.098;2022-12-07T01:36:39;1999.90;;;999.90;;
7613;SDS011;3848;42.016;23.098;2022-12-07T01:39:06;1999.90;;;999.90;;
7613;SDS011;3848;42.016;23.098;2022-12-07T01:41:36;1999.90;;;999.90;;
7613;SDS011;3848;42.016;23.098;2022-12-07T01:46:48;1999.90;;;999.90;;
7613;SDS011;3848;42.016;23.098;2022-12-07T01:49:17;1999.90;;;999.90;;
7613;SDS011;3848;42.016;23.098;2022-12-07T01:51:50;1999.90;;;999.90;;
7613;SDS011;3848;42.016;23.098;2022-12-07T01:54:20;1999.90;;;999.90;;
7613;SDS011;3848;42.016;23.098;2022-12-07T01:56:49;1999.90;;;999.90;;
7613;SDS011;3848;42.016;23.098;2022-12-07T01:59:19;1999.90;;;999.90;;
7613;SDS011;3848;42.016;23.098;2022-12-07T02:01:49;1999.90;;;999.90;;
7613;SDS011;3848;42.016;23.098;2022-12-07T02:04:17;1999.90;;;999.90;;
7613;SDS011;3848;42.016;23.098;2022-12-07T02:06:44;1999.90;;;999.90;;
7613;SDS011;3848;42.016;23.098;2022-12-07T02:09:14;1999.90;;;999.90;;
7613;SDS011;3848;42.016;23.098;2022-12-07T02:11:41;1999.90;;;999.90;;
7613;SDS011;3848;42.016;23.098;2022-12-07T02:14:08;1999.90;;;999.90;;
7613;SDS011;3848;42.016;23.098;2022-12-07T02:16:37;1999.90;;;999.90;;
7613;SDS011;3848;42.016;23.098;2022-12-07T02:22:31;1999.90;;;999.90;;
7613;SDS011;3848;42.016;23.098;2022-12-07T02:25:12;1999.90;;;999.90;;
7613;SDS011;3848;42.016;23.098;2022-12-07T02:27:55;1999.90;;;999.90;;
7613;SDS011;3848;42.016;23.098;2022-12-07T02:30:30;1999.90;;;999.90;;
7613;SDS011;3848;42.016;23.098;2022-12-07T02:33:00;1999.90;;;999.90;;
7613;SDS011;3848;42.016;23.098;2022-12-07T02:35:32;1999.90;;;999.90;;
7613;SDS011;3848;42.016;23.098;2022-12-07T02:38:07;1999.90;;;999.90;;
7613;SDS011;3848;42.016;23.098;2022-12-07T02:40:41;1999.90;;;999.90;;
7613;SDS011;3848;42.016;23.098;2022-12-07T02:43:15;1999.90;;;999.90;;
7613;SDS011;3848;42.016;23.098;2022-12-07T02:45:47;1999.90;;;999.90;;
7613;SDS011;3848;42.016;23.098;2022-12-07T02:48:17;1999.90;;;999.90;;
7613;SDS011;3848;42.016;23.098;2022-12-07T02:50:48;1999.90;;;999.90;;
7613;SDS011;3848;42.016;23.098;2022-12-07T02:53:31;1999.90;;;999.90;;
7613;SDS011;3848;42.016;23.098;2022-12-07T02:55:59;1999.90;;;999.90;;
7613;SDS011;3848;42.016;23.098;2022-12-07T02:58:33;1999.90;;;999.90;;
7613;SDS011;3848;42.016;23.098;2022-12-07T03:01:11;1999.90;;;999.90;;
7613;SDS011;3848;42.016;23.098;2022-12-07T03:03:52;1999.90;;;999.90;;
7613;SDS011;3848;42.016;23.098;2022-12-07T03:06:29;1999.90;;;999.90;;
7613;SDS011;3848;42.016;23.098;2022-12-07T03:09:03;1999.90;;;999.90;;
7613;SDS011;3848;42.016;23.098;2022-12-07T03:11:39;1999.90;;;999.90;;
7613;SDS011;3848;42.016;23.098;2022-12-07T03:14:13;1999.90;;;999.90;;
7613;SDS011;3848;42.016;23.098;2022-12-07T03:16:46;1999.90;;;999.90;;
7613;SDS011;3848;42.016;23.098;2022-12-07T03:19:18;1999.90;;;999.90;;
7613;SDS011;3848;42.016;23.098;2022-12-07T03:21:49;1999.90;;;999.90;;
7613;SDS011;3848;42.016;23.098;2022-12-07T03:24:22;1999.90;;;999.90;;
7613;SDS011;3848;42.016;23.098;2022-12-07T03:26:56;1999.90;;;999.90;;
7613;SDS011;3848;42.016;23.098;2022-12-07T03:29:28;1999.90;;;999.90;;
7613;SDS011;3848;42.016;23.098;2022-12-07T03:31:59;1999.90;;;999.90;;
7613;SDS011;3848;42.016;23.098;2022-12-07T03:34:32;1999.90;;;999.90;;
7613;SDS011;3848;42.016;23.098;2022-12-07T03:37:04;1999.90;;;999.90;;
7613;SDS011;3848;42.016;23.098;2022-12-07T03:39:36;1999.90;;;999.90;;
7613;SDS011;3848;42.016;23.098;2022-12-07T03:42:07;1999.90;;;999.90;;
7613;SDS011;3848;42.016;23.098;2022-12-07T03:44:36;1999.90;;;999.90;;
7613;SDS011;3848;42.016;23.098;2022-12-07T03:47:05;1999.90;;;999.90;;
7613;SDS011;3848;42.016;23.098;2022-12-07T03:49:40;1999.90;;;999.90;;
7613;SDS011;3848;42.016;23.098;2022-12-07T03:52:12;1999.90;;;999.90;;
7613;SDS011;3848;42.016;23.098;2022-12-07T03:54:49;1999.90;;;999.90;;
7613;SDS011;3848;42.016;23.098;2022-12-07T03:57:22;1999.90;;;999.90;;
7613;SDS011;3848;42.016;23.098;2022-12-07T03:59:52;1999.90;;;999.90;;
7613;SDS011;3848;42.016;23.098;2022-12-07T04:02:22;1999.90;;;999.90;;
7613;SDS011;3848;42.016;23.098;2022-12-07T04:04:51;1999.90;;;999.90;;
7613;SDS011;3848;42.016;23.098;2022-12-07T04:07:18;1999.90;;;999.90;;
7613;SDS011;3848;42.016;23.098;2022-12-07T04:09:45;1999.90;;;999.90;;
7613;SDS011;3848;42.016;23.098;2022-12-07T04:12:12;1999.90;;;999.90;;
7613;SDS011;3848;42.016;23.098;2022-12-07T04:14:38;1999.90;;;999.90;;
7613;SDS011;3848;42.016;23.098;2022-12-07T04:17:05;1999.90;;;999.90;;
7613;SDS011;3848;42.016;23.098;2022-12-07T04:19:33;1999.90;;;999.90;;
7613;SDS011;3848;42.016;23.098;2022-12-07T04:22:01;1999.90;;;999.90;;
7613;SDS011;3848;42.016;23.098;2022-12-07T04:24:29;1999.90;;;999.90;;
7613;SDS011;3848;42.016;23.098;2022-12-07T04:26:55;1999.90;;;999.90;;
7613;SDS011;3848;42.016;23.098;2022-12-07T04:29:22;1999.90;;;999.90;;
7613;SDS011;3848;42.016;23.098;2022-12-07T04:31:50;1999.90;;;999.90;;
7613;SDS011;3848;42.016;23.098;2022-12-07T04:34:18;1999.90;;;999.90;;
7613;SDS011;3848;42.016;23.098;2022-12-07T04:36:46;1999.90;;;999.90;;
7613;SDS011;3848;42.016;23.098;2022-12-07T04:39:17;1999.90;;;999.90;;
7613;SDS011;3848;42.016;23.098;2022-12-07T04:41:46;1999.90;;;999.90;;
7613;SDS011;3848;42.016;23.098;2022-12-07T04:44:13;1999.90;;;999.90;;
7613;SDS011;3848;42.016;23.098;2022-12-07T04:46:40;1999.90;;;999.90;;
7613;SDS011;3848;42.016;23.098;2022-12-07T04:49:07;1999.90;;;999.90;;
7613;SDS011;3848;42.016;23.098;2022-12-07T04:51:34;1999.90;;;999.90;;
7613;SDS011;3848;42.016;23.098;2022-12-07T04:54:02;1999.90;;;999.90;;
7613;SDS011;3848;42.016;23.098;2022-12-07T04:56:29;1999.90;;;999.90;;
7613;SDS011;3848;42.016;23.098;2022-12-07T04:58:56;1999.90;;;999.90;;
7613;SDS011;3848;42.016;23.098;2022-12-07T05:01:23;1999.90;;;999.90;;
7613;SDS011;3848;42.016;23.098;2022-12-07T05:03:50;1999.90;;;999.90;;
7613;SDS011;3848;42.016;23.098;2022-12-07T05:06:17;1999.90;;;999.90;;
7613;SDS011;3848;42.016;23.098;2022-12-07T05:08:44;1999.90;;;999.90;;
7613;SDS011;3848;42.016;23.098;2022-12-07T05:11:13;1999.90;;;999.90;;
7613;SDS011;3848;42.016;23.098;2022-12-07T05:14:01;1999.90;;;999.90;;
7613;SDS011;3848;42.016;23.098;2022-12-07T05:16:28;1999.90;;;999.90;;
7613;SDS011;3848;42.016;23.098;2022-12-07T05:18:55;1999.90;;;999.90;;
7613;SDS011;3848;42.016;23.098;2022-12-07T05:21:22;1999.90;;;999.90;;
7613;SDS011;3848;42.016;23.098;2022-12-07T05:23:49;1999.90;;;999.90;;
7613;SDS011;3848;42.016;23.098;2022-12-07T05:26:17;1999.90;;;999.90;;
7613;SDS011;3848;42.016;23.098;2022-12-07T05:28:44;1999.90;;;999.90;;
7613;SDS011;3848;42.016;23.098;2022-12-07T05:31:11;1999.90;;;999.90;;
7613;SDS011;3848;42.016;23.098;2022-12-07T05:33:38;1999.90;;;999.90;;
7613;SDS011;3848;42.016;23.098;2022-12-07T05:36:05;1999.90;;;999.90;;
7613;SDS011;3848;42.016;23.098;2022-12-07T05:38:32;1999.90;;;999.90;;
7613;SDS011;3848;42.016;23.098;2022-12-07T05:41:00;1999.90;;;999.90;;
7613;SDS011;3848;42.016;23.098;2022-12-07T05:43:29;1999.90;;;999.90;;
7613;SDS011;3848;42.016;23.098;2022-12-07T05:45:56;1999.90;;;999.90;;
7613;SDS011;3848;42.016;23.098;2022-12-07T05:48:23;1999.90;;;999.90;;
7613;SDS011;3848;42.016;23.098;2022-12-07T05:50:51;1999.90;;;999.90;;
7613;SDS011;3848;42.016;23.098;2022-12-07T05:53:18;1999.90;;;999.90;;
7613;SDS011;3848;42.016;23.098;2022-12-07T05:55:45;1999.90;;;999.90;;
7613;SDS011;3848;42.016;23.098;2022-12-07T05:58:12;1999.90;;;999.90;;
7613;SDS011;3848;42.016;23.098;2022-12-07T06:00:56;1999.90;;;999.90;;
7613;SDS011;3848;42.016;23.098;2022-12-07T06:03:23;1999.90;;;999.90;;
7613;SDS011;3848;42.016;23.098;2022-12-07T06:05:51;1999.90;;;999.90;;
7613;SDS011;3848;42.016;23.098;2022-12-07T06:08:18;1999.90;;;999.90;;
7613;SDS011;3848;42.016;23.098;2022-12-07T06:10:46;1999.90;;;999.90;;
7613;SDS011;3848;42.016;23.098;2022-12-07T06:13:37;1999.90;;;999.90;;
7613;SDS011;3848;42.016;23.098;2022-12-07T06:16:04;1999.90;;;999.90;;
7613;SDS011;3848;42.016;23.098;2022-12-07T06:18:32;1999.90;;;999.90;;
7613;SDS011;3848;42.016;23.098;2022-12-07T06:20:59;1999.90;;;999.90;;
7613;SDS011;3848;42.016;23.098;2022-12-07T06:23:25;1999.90;;;999.90;;
7613;SDS011;3848;42.016;23.098;2022-12-07T06:25:52;1999.90;;;999.90;;
7613;SDS011;3848;42.016;23.098;2022-12-07T06:28:19;1999.90;;;999.90;;
7613;SDS011;3848;42.016;23.098;2022-12-07T06:30:46;1999.90;;;999.90;;
7613;SDS011;3848;42.016;23.098;2022-12-07T06:33:14;1999.90;;;999.90;;
7613;SDS011;3848;42.016;23.098;2022-12-07T06:35:41;1999.90;;;999.90;;
7613;SDS011;3848;42.016;23.098;2022-12-07T06:38:08;1999.90;;;999.90;;
7613;SDS011;3848;42.016;23.098;2022-12-07T06:40:34;1999.90;;;999.90;;
7613;SDS011;3848;42.016;23.098;2022-12-07T06:43:02;1999.90;;;999.90;;
7613;SDS011;3848;42.016;23.098;2022-12-07T06:45:29;1999.90;;;999.90;;
7613;SDS011;3848;42.016;23.098;2022-12-07T06:47:56;1999.90;;;999.90;;
7613;SDS011;3848;42.016;23.098;2022-12-07T06:50:24;1999.90;;;999.90;;
7613;SDS011;3848;42.016;23.098;2022-12-07T06:52:51;1999.90;;;999.90;;
7613;SDS011;3848;42.016;23.098;2022-12-07T06:55:18;1999.90;;;999.90;;
7613;SDS011;3848;42.016;23.098;2022-12-07T06:57:45;1999.90;;;999.90;;
7613;SDS011;3848;42.016;23.098;2022-12-07T07:00:12;1999.90;;;999.90;;
7613;SDS011;3848;42.016;23.098;2022-12-07T07:02:40;1999.90;;;999.90;;
7613;SDS011;3848;42.016;23.098;2022-12-07T07:05:07;1999.90;;;999.90;;
7613;SDS011;3848;42.016;23.098;2022-12-07T07:07:35;1999.90;;;999.90;;
7613;SDS011;3848;42.016;23.098;2022-12-07T07:10:02;1999.90;;;999.90;;
7613;SDS011;3848;42.016;23.098;2022-12-07T07:12:31;1999.90;;;999.90;;
7613;SDS011;3848;42.016;23.098;2022-12-07T07:14:57;1999.90;;;999.90;;
7613;SDS011;3848;42.016;23.098;2022-12-07T07:17:24;1999.90;;;999.90;;
7613;SDS011;3848;42.016;23.098;2022-12-07T07:19:51;1999.90;;;999.90;;
7613;SDS011;3848;42.016;23.098;2022-12-07T07:22:18;1999.90;;;999.90;;
7613;SDS011;3848;42.016;23.098;2022-12-07T07:24:46;1999.90;;;999.90;;
7613;SDS011;3848;42.016;23.098;2022-12-07T07:27:12;1999.90;;;999.90;;
7613;SDS011;3848;42.016;23.098;2022-12-07T07:29:40;1999.90;;;999.90;;
7613;SDS011;3848;42.016;23.098;2022-12-07T07:32:07;1999.90;;;999.90;;
7613;SDS011;3848;42.016;23.098;2022-12-07T07:34:33;1999.90;;;999.90;;
7613;SDS011;3848;42.016;23.098;2022-12-07T07:37:00;1999.90;;;999.90;;
7613;SDS011;3848;42.016;23.098;2022-12-07T07:39:27;1999.90;;;999.90;;
7613;SDS011;3848;42.016;23.098;2022-12-07T07:41:55;1999.90;;;999.90;;
7613;SDS011;3848;42.016;23.098;2022-12-07T07:44:22;1999.90;;;999.90;;
7613;SDS011;3848;42.016;23.098;2022-12-07T07:46:49;1999.90;;;999.90;;
7613;SDS011;3848;42.016;23.098;2022-12-07T07:49:16;1999.90;;;999.90;;
7613;SDS011;3848;42.016;23.098;2022-12-07T07:51:42;1999.90;;;999.90;;
7613;SDS011;3848;42.016;23.098;2022-12-07T07:54:09;1999.90;;;999.90;;
7613;SDS011;3848;42.016;23.098;2022-12-07T07:56:36;1999.90;;;999.90;;
7613;SDS011;3848;42.016;23.098;2022-12-07T07:59:05;1999.90;;;999.90;;
7613;SDS011;3848;42.016;23.098;2022-12-07T08:01:32;1999.90;;;999.90;;
7613;SDS011;3848;42.016;23.098;2022-12-07T08:03:59;1999.90;;;999.90;;
7613;SDS011;3848;42.016;23.098;2022-12-07T08:06:26;1999.90;;;999.90;;
7613;SDS011;3848;42.016;23.098;2022-12-07T08:08:53;1999.90;;;999.90;;
7613;SDS011;3848;42.016;23.098;2022-12-07T08:11:19;1999.90;;;999.90;;
7613;SDS011;3848;42.016;23.098;2022-12-07T08:13:46;1999.90;;;999.90;;
7613;SDS011;3848;42.016;23.098;2022-12-07T08:16:14;1999.90;;;999.90;;
7613;SDS011;3848;42.016;23.098;2022-12-07T08:18:42;1999.90;;;999.90;;
7613;SDS011;3848;42.016;23.098;2022-12-07T08:21:11;1999.90;;;999.90;;
7613;SDS011;3848;42.016;23.098;2022-12-07T08:23:39;1999.90;;;999.90;;
7613;SDS011;3848;42.016;23.098;2022-12-07T08:26:07;1999.90;;;999.90;;
7613;SDS011;3848;42.016;23.098;2022-12-07T08:28:35;1999.90;;;999.90;;
7613;SDS011;3848;42.016;23.098;2022-12-07T08:31:03;1999.90;;;999.90;;
7613;SDS011;3848;42.016;23.098;2022-12-07T08:33:32;1999.90;;;999.90;;
7613;SDS011;3848;42.016;23.098;2022-12-07T08:36:00;1999.90;;;999.90;;
7613;SDS011;3848;42.016;23.098;2022-12-07T08:38:27;1999.90;;;999.90;;
7613;SDS011;3848;42.016;23.098;2022-12-07T08:40:54;1999.90;;;999.90;;
7613;SDS011;3848;42.016;23.098;2022-12-07T08:43:21;1999.90;;;999.90;;
7613;SDS011;3848;42.016;23.098;2022-12-07T08:45:51;1999.90;;;999.90;;
7613;SDS011;3848;42.016;23.098;2022-12-07T08:48:25;1999.90;;;999.90;;
7613;SDS011;3848;42.016;23.098;2022-12-07T08:50:53;43.97;;;40.93;;
7613;SDS011;3848;42.016;23.098;2022-12-07T08:53:20;42.80;;;39.87;;
7613;SDS011;3848;42.016;23.098;2022-12-07T08:55:48;46.47;;;43.10;;
7613;SDS011;3848;42.016;23.098;2022-12-07T08:58:15;46.67;;;43.33;;
7613;SDS011;3848;42.016;23.098;2022-12-07T09:00:42;45.53;;;42.57;;
7613;SDS011;3848;42.016;23.098;2022-12-07T09:03:09;51.23;;;47.70;;
7613;SDS011;3848;42.016;23.098;2022-12-07T09:05:36;50.43;;;46.60;;
7613;SDS011;3848;42.016;23.098;2022-12-07T09:08:04;43.93;;;41.33;;
7613;SDS011;3848;42.016;23.098;2022-12-07T09:10:32;43.10;;;40.20;;
7613;SDS011;3848;42.016;23.098;2022-12-07T09:12:59;43.83;;;40.83;;
7613;SDS011;3848;42.016;23.098;2022-12-07T09:15:26;42.17;;;39.57;;
7613;SDS011;3848;42.016;23.098;2022-12-07T09:17:53;43.67;;;40.50;;
7613;SDS011;3848;42.016;23.098;2022-12-07T09:20:20;46.40;;;43.50;;
7613;SDS011;3848;42.016;23.098;2022-12-07T09:22:47;42.50;;;39.77;;
7613;SDS011;3848;42.016;23.098;2022-12-07T09:25:16;43.70;;;40.77;;
7613;SDS011;3848;42.016;23.098;2022-12-07T09:27:42;40.13;;;37.50;;
7613;SDS011;3848;42.016;23.098;2022-12-07T09:30:10;42.70;;;39.97;;
7613;SDS011;3848;42.016;23.098;2022-12-07T09:32:37;52.53;;;49.43;;
7613;SDS011;3848;42.016;23.098;2022-12-07T09:35:04;44.93;;;42.00;;
7613;SDS011;3848;42.016;23.098;2022-12-07T09:37:31;43.93;;;41.40;;
7613;SDS011;3848;42.016;23.098;2022-12-07T09:40:01;46.03;;;43.10;;
7613;SDS011;3848;42.016;23.098;2022-12-07T09:42:30;42.07;;;39.57;;
7613;SDS011;3848;42.016;23.098;2022-12-07T09:45:00;41.03;;;38.43;;
7613;SDS011;3848;42.016;23.098;2022-12-07T09:47:29;40.93;;;38.00;;
7613;SDS011;3848;42.016;23.098;2022-12-07T09:50:04;40.17;;;37.67;;
7613;SDS011;3848;42.016;23.098;2022-12-07T09:52:32;37.93;;;35.63;;
7613;SDS011;3848;42.016;23.098;2022-12-07T09:54:59;40.00;;;37.67;;
7613;SDS011;3848;42.016;23.098;2022-12-07T09:57:27;39.53;;;37.00;;
7613;SDS011;3848;42.016;23.098;2022-12-07T09:59:59;45.60;;;42.23;;
7613;SDS011;3848;42.016;23.098;2022-12-07T10:02:35;48.93;;;45.23;;
7613;SDS011;3848;42.016;23.098;2022-12-07T10:05:03;41.87;;;39.10;;
7613;SDS011;3848;42.016;23.098;2022-12-07T10:07:31;40.70;;;38.00;;
7613;SDS011;3848;42.016;23.098;2022-12-07T10:09:58;45.23;;;41.23;;
7613;SDS011;3848;42.016;23.098;2022-12-07T10:12:25;36.93;;;34.83;;
7613;SDS011;3848;42.016;23.098;2022-12-07T10:14:57;39.57;;;37.07;;
7613;SDS011;3848;42.016;23.098;2022-12-07T10:17:35;40.43;;;37.33;;
7613;SDS011;3848;42.016;23.098;2022-12-07T10:20:10;36.63;;;34.37;;
7613;SDS011;3848;42.016;23.098;2022-12-07T10:22:58;40.23;;;37.73;;
7613;SDS011;3848;42.016;23.098;2022-12-07T10:25:28;43.13;;;40.20;;
7613;SDS011;3848;42.016;23.098;2022-12-07T10:27:58;37.93;;;35.83;;
7613;SDS011;3848;42.016;23.098;2022-12-07T10:30:28;37.10;;;35.10;;
7613;SDS011;3848;42.016;23.098;2022-12-07T10:32:57;39.03;;;36.80;;
7613;SDS011;3848;42.016;23.098;2022-12-07T10:35:25;38.80;;;36.50;;
7613;SDS011;3848;42.016;23.098;2022-12-07T10:37:55;39.50;;;37.10;;
7613;SDS011;3848;42.016;23.098;2022-12-07T10:40:28;40.33;;;37.93;;
7613;SDS011;3848;42.016;23.098;2022-12-07T10:43:02;42.07;;;39.10;;
7613;SDS011;3848;42.016;23.098;2022-12-07T10:45:34;40.27;;;37.87;;
7613;SDS011;3848;42.016;23.098;2022-12-07T10:48:03;38.57;;;36.10;;
7613;SDS011;3848;42.016;23.098;2022-12-07T10:53:38;40.63;;;37.70;;
7613;SDS011;3848;42.016;23.098;2022-12-07T10:56:19;42.83;;;39.77;;
7613;SDS011;3848;42.016;23.098;2022-12-07T10:59:07;41.50;;;38.53;;
7613;SDS011;3848;42.016;23.098;2022-12-07T11:01:54;38.93;;;36.53;;
7613;SDS011;3848;42.016;23.098;2022-12-07T11:04:30;49.27;;;45.37;;
7613;SDS011;3848;42.016;23.098;2022-12-07T11:07:04;40.93;;;38.53;;
7613;SDS011;3848;42.016;23.098;2022-12-07T11:09:49;43.27;;;40.50;;
7613;SDS011;3848;42.016;23.098;2022-12-07T11:12:26;42.80;;;39.83;;
7613;SDS011;3848;42.016;23.098;2022-12-07T11:15:01;44.07;;;41.10;;
7613;SDS011;3848;42.016;23.098;2022-12-07T11:17:36;41.20;;;38.60;;
7613;SDS011;3848;42.016;23.098;2022-12-07T11:20:16;43.27;;;40.10;;
7613;SDS011;3848;42.016;23.098;2022-12-07T11:22:55;42.43;;;39.67;;
7613;SDS011;3848;42.016;23.098;2022-12-07T11:25:31;43.03;;;40.10;;
7613;SDS011;3848;42.016;23.098;2022-12-07T11:28:03;44.67;;;41.97;;
7613;SDS011;3848;42.016;23.098;2022-12-07T11:30:42;45.93;;;42.50;;
7613;SDS011;3848;42.016;23.098;2022-12-07T11:33:19;46.23;;;42.83;;
7613;SDS011;3848;42.016;23.098;2022-12-07T11:35:56;44.53;;;41.40;;
7613;SDS011;3848;42.016;23.098;2022-12-07T11:38:35;44.60;;;41.47;;
7613;SDS011;3848;42.016;23.098;2022-12-07T11:41:08;42.03;;;39.03;;
7613;SDS011;3848;42.016;23.098;2022-12-07T11:43:52;39.80;;;37.30;;
7613;SDS011;3848;42.016;23.098;2022-12-07T11:46:24;41.37;;;38.60;;
7613;SDS011;3848;42.016;23.098;2022-12-07T11:48:58;44.67;;;41.43;;
7613;SDS011;3848;42.016;23.098;2022-12-07T11:51:29;40.93;;;38.33;;
7613;SDS011;3848;42.016;23.098;2022-12-07T11:54:02;43.37;;;40.23;;
7613;SDS011;3848;42.016;23.098;2022-12-07T11:56:31;43.80;;;40.70;;
7613;SDS011;3848;42.016;23.098;2022-12-07T11:59:04;43.87;;;40.80;;
7613;SDS011;3848;42.016;23.098;2022-12-07T12:01:41;43.23;;;40.17;;
7613;SDS011;3848;42.016;23.098;2022-12-07T12:04:19;42.33;;;39.43;;
7613;SDS011;3848;42.016;23.098;2022-12-07T12:06:53;43.83;;;40.90;;
7613;SDS011;3848;42.016;23.098;2022-12-07T12:09:21;41.93;;;39.23;;
7613;SDS011;3848;42.016;23.098;2022-12-07T12:14:50;45.67;;;42.07;;
7613;SDS011;3848;42.016;23.098;2022-12-07T12:20:35;47.67;;;43.77;;
7613;SDS011;3848;42.016;23.098;2022-12-07T12:23:07;46.00;;;42.67;;
7613;SDS011;3848;42.016;23.098;2022-12-07T12:25:40;42.30;;;39.53;;
7613;SDS011;3848;42.016;23.098;2022-12-07T12:28:18;42.20;;;38.97;;
7613;SDS011;3848;42.016;23.098;2022-12-07T12:33:38;42.57;;;39.57;;
7613;SDS011;3848;42.016;23.098;2022-12-07T12:36:18;43.83;;;40.63;;
7613;SDS011;3848;42.016;23.098;2022-12-07T12:38:49;41.47;;;38.53;;
7613;SDS011;3848;42.016;23.098;2022-12-07T12:44:41;40.80;;;38.13;;
7613;SDS011;3848;42.016;23.098;2022-12-07T12:47:42;39.00;;;36.67;;
7613;SDS011;3848;42.016;23.098;2022-12-07T12:50:23;40.87;;;38.27;;
7613;SDS011;3848;42.016;23.098;2022-12-07T12:52:56;39.43;;;37.03;;
7613;SDS011;3848;42.016;23.098;2022-12-07T12:58:32;43.10;;;40.00;;
7613;SDS011;3848;42.016;23.098;2022-12-07T13:04:12;40.57;;;37.67;;
7613;SDS011;3848;42.016;23.098;2022-12-07T13:06:48;41.13;;;38.43;;
7613;SDS011;3848;42.016;23.098;2022-12-07T13:09:21;42.83;;;39.73;;
7613;SDS011;3848;42.016;23.098;2022-12-07T13:11:55;44.90;;;41.60;;
7613;SDS011;3848;42.016;23.098;2022-12-07T13:14:38;42.07;;;39.23;;
7613;SDS011;3848;42.016;23.098;2022-12-07T13:23:31;45.17;;;41.83;;
7613;SDS011;3848;42.016;23.098;2022-12-07T13:26:08;44.40;;;41.40;;
7613;SDS011;3848;42.016;23.098;2022-12-07T13:28:40;46.07;;;42.53;;
7613;SDS011;3848;42.016;23.098;2022-12-07T13:31:11;46.63;;;42.73;;
7613;SDS011;3848;42.016;23.098;2022-12-07T13:33:42;46.20;;;43.00;;
7613;SDS011;3848;42.016;23.098;2022-12-07T13:36:11;44.80;;;41.97;;
7613;SDS011;3848;42.016;23.098;2022-12-07T13:38:48;44.70;;;41.03;;
7613;SDS011;3848;42.016;23.098;2022-12-07T13:41:21;44.63;;;41.43;;
7613;SDS011;3848;42.016;23.098;2022-12-07T13:43:51;48.13;;;43.80;;
7613;SDS011;3848;42.016;23.098;2022-12-07T13:46:24;48.13;;;43.87;;
7613;SDS011;3848;42.016;23.098;2022-12-07T13:48:55;52.97;;;47.93;;
7613;SDS011;3848;42.016;23.098;2022-12-07T13:51:23;52.07;;;46.87;;
7613;SDS011;3848;42.016;23.098;2022-12-07T13:53:52;88.10;;;63.57;;
7613;SDS011;3848;42.016;23.098;2022-12-07T13:56:22;49.17;;;44.97;;
7613;SDS011;3848;42.016;23.098;2022-12-07T13:58:54;50.10;;;43.83;;
7613;SDS011;3848;42.016;23.098;2022-12-07T14:01:21;50.73;;;46.10;;
7613;SDS011;3848;42.016;23.098;2022-12-07T14:03:48;51.87;;;46.43;;
7613;SDS011;3848;42.016;23.098;2022-12-07T14:06:25;91.97;;;62.37;;
7613;SDS011;3848;42.016;23.098;2022-12-07T14:09:06;56.63;;;49.00;;
7613;SDS011;3848;42.016;23.098;2022-12-07T14:11:35;53.20;;;47.13;;
7613;SDS011;3848;42.016;23.098;2022-12-07T14:14:04;53.87;;;48.57;;
7613;SDS011;3848;42.016;23.098;2022-12-07T14:16:32;66.07;;;54.83;;
7613;SDS011;3848;42.016;23.098;2022-12-07T14:19:01;53.60;;;49.47;;
7613;SDS011;3848;42.016;23.098;2022-12-07T14:21:30;65.90;;;58.80;;
7613;SDS011;3848;42.016;23.098;2022-12-07T14:24:08;52.37;;;48.40;;
7613;SDS011;3848;42.016;23.098;2022-12-07T14:26:39;64.97;;;58.27;;
7613;SDS011;3848;42.016;23.098;2022-12-07T14:29:18;59.97;;;54.07;;
7613;SDS011;3848;42.016;23.098;2022-12-07T14:31:47;50.60;;;46.87;;
7613;SDS011;3848;42.016;23.098;2022-12-07T14:34:14;48.83;;;45.43;;
7613;SDS011;3848;42.016;23.098;2022-12-07T14:36:41;54.83;;;50.40;;
7613;SDS011;3848;42.016;23.098;2022-12-07T14:39:07;56.17;;;51.17;;
7613;SDS011;3848;42.016;23.098;2022-12-07T14:41:34;59.40;;;53.60;;
7613;SDS011;3848;42.016;23.098;2022-12-07T14:44:21;51.07;;;46.83;;
7613;SDS011;3848;42.016;23.098;2022-12-07T14:46:49;55.40;;;50.90;;
7613;SDS011;3848;42.016;23.098;2022-12-07T14:49:17;51.90;;;47.53;;
7613;SDS011;3848;42.016;23.098;2022-12-07T14:51:44;61.40;;;55.70;;
7613;SDS011;3848;42.016;23.098;2022-12-07T14:54:14;52.10;;;47.93;;
7613;SDS011;3848;42.016;23.098;2022-12-07T14:56:43;52.60;;;48.37;;
7613;SDS011;3848;42.016;23.098;2022-12-07T14:59:14;61.00;;;54.90;;
7613;SDS011;3848;42.016;23.098;2022-12-07T15:01:42;52.87;;;48.40;;